sensor_id;sensor_type;location;lat;lon;timestamp;P1;durP1;ratioP1;P2;durP2;ratioP2
65289;SDS011;51893;59.754;10.110;2023-07-16T00:00:31;7.10;;;2.30;;
65289;SDS011;51893;59.754;10.110;2023-07-16T00:03:19;15.60;;;2.10;;
65289;SDS011;51893;59.754;10.110;2023-07-16T00:05:52;2.90;;;2.00;;
65289;SDS011;51893;59.754;10.110;2023-07-16T00:08:20;4.30;;;2.30;;
65289;SDS011;51893;59.754;10.110;2023-07-16T00:10:48;4.80;;;1.80;;
65289;SDS011;51893;59.754;10.110;2023-07-16T00:13:17;4.30;;;1.80;;
65289;SDS011;51893;59.754;10.110;2023-07-16T00:15:45;2.80;;;1.70;;
65289;SDS011;51893;59.754;10.110;2023-07-16T00:18:13;3.30;;;1.90;;
65289;SDS011;51893;59.754;10.110;2023-07-16T00:20:41;4.40;;;1.70;;
65289;SDS011;51893;59.754;10.110;2023-07-16T00:23:09;4.90;;;2.30;;
65289;SDS011;51893;59.754;10.110;2023-07-16T00:25:37;3.10;;;2.10;;
65289;SDS011;51893;59.754;10.110;2023-07-16T00:28:05;7.60;;;2.10;;
65289;SDS011;51893;59.754;10.110;2023-07-16T00:30:33;4.40;;;2.30;;
65289;SDS011;51893;59.754;10.110;2023-07-16T00:33:01;4.10;;;2.10;;
65289;SDS011;51893;59.754;10.110;2023-07-16T00:35:30;4.60;;;1.80;;
65289;SDS011;51893;59.754;10.110;2023-07-16T00:37:58;4.50;;;2.20;;
65289;SDS011;51893;59.754;10.110;2023-07-16T00:40:26;5.20;;;2.40;;
65289;SDS011;51893;59.754;10.110;2023-07-16T00:42:54;6.10;;;2.70;;
65289;SDS011;51893;59.754;10.110;2023-07-16T00:45:22;3.90;;;2.20;;
65289;SDS011;51893;59.754;10.110;2023-07-16T00:47:51;4.20;;;2.20;;
65289;SDS011;51893;59.754;10.110;2023-07-16T00:50:20;4.00;;;2.20;;
65289;SDS011;51893;59.754;10.110;2023-07-16T00:52:48;2.50;;;1.50;;
65289;SDS011;51893;59.754;10.110;2023-07-16T00:55:17;4.70;;;1.70;;
65289;SDS011;51893;59.754;10.110;2023-07-16T00:57:46;2.80;;;1.70;;
65289;SDS011;51893;59.754;10.110;2023-07-16T01:00:15;3.50;;;1.60;;
65289;SDS011;51893;59.754;10.110;2023-07-16T01:02:44;4.00;;;1.90;;
65289;SDS011;51893;59.754;10.110;2023-07-16T01:05:12;7.50;;;2.10;;
65289;SDS011;51893;59.754;10.110;2023-07-16T01:07:43;2.90;;;1.70;;
65289;SDS011;51893;59.754;10.110;2023-07-16T01:10:22;4.90;;;2.20;;
65289;SDS011;51893;59.754;10.110;2023-07-16T01:12:54;4.00;;;1.80;;
65289;SDS011;51893;59.754;10.110;2023-07-16T01:15:24;3.30;;;2.00;;
65289;SDS011;51893;59.754;10.110;2023-07-16T01:17:52;3.70;;;2.10;;
65289;SDS011;51893;59.754;10.110;2023-07-16T01:20:20;4.30;;;1.80;;
65289;SDS011;51893;59.754;10.110;2023-07-16T01:23:07;3.90;;;1.90;;
65289;SDS011;51893;59.754;10.110;2023-07-16T01:28:53;6.70;;;2.20;;
65289;SDS011;51893;59.754;10.110;2023-07-16T01:31:40;7.10;;;2.10;;
65289;SDS011;51893;59.754;10.110;2023-07-16T01:34:10;3.70;;;2.20;;
65289;SDS011;51893;59.754;10.110;2023-07-16T01:36:39;3.20;;;1.80;;
65289;SDS011;51893;59.754;10.110;2023-07-16T01:39:09;3.10;;;1.90;;
65289;SDS011;51893;59.754;10.110;2023-07-16T01:41:37;4.30;;;1.60;;
65289;SDS011;51893;59.754;10.110;2023-07-16T01:44:05;4.80;;;1.70;;
65289;SDS011;51893;59.754;10.110;2023-07-16T01:46:33;5.50;;;1.80;;
65289;SDS011;51893;59.754;10.110;2023-07-16T01:49:01;2.40;;;1.60;;
65289;SDS011;51893;59.754;10.110;2023-07-16T01:51:29;2.40;;;1.70;;
65289;SDS011;51893;59.754;10.110;2023-07-16T01:54:00;5.50;;;2.30;;
65289;SDS011;51893;59.754;10.110;2023-07-16T01:56:28;3.90;;;1.90;;
65289;SDS011;51893;59.754;10.110;2023-07-16T01:58:56;10.40;;;1.90;;
65289;SDS011;51893;59.754;10.110;2023-07-16T02:01:24;3.40;;;2.10;;
65289;SDS011;51893;59.754;10.110;2023-07-16T02:03:52;4.50;;;2.10;;
65289;SDS011;51893;59.754;10.110;2023-07-16T02:06:20;7.00;;;2.10;;
65289;SDS011;51893;59.754;10.110;2023-07-16T02:08:50;5.10;;;2.20;;
65289;SDS011;51893;59.754;10.110;2023-07-16T02:11:20;4.30;;;2.10;;
65289;SDS011;51893;59.754;10.110;2023-07-16T02:13:49;5.70;;;2.40;;
65289;SDS011;51893;59.754;10.110;2023-07-16T02:16:17;4.20;;;2.10;;
65289;SDS011;51893;59.754;10.110;2023-07-16T02:18:45;4.50;;;2.00;;
65289;SDS011;51893;59.754;10.110;2023-07-16T02:21:13;5.60;;;2.60;;
65289;SDS011;51893;59.754;10.110;2023-07-16T02:23:41;4.50;;;1.80;;
65289;SDS011;51893;59.754;10.110;2023-07-16T02:26:09;5.50;;;2.20;;
65289;SDS011;51893;59.754;10.110;2023-07-16T02:28:37;7.00;;;2.60;;
65289;SDS011;51893;59.754;10.110;2023-07-16T02:31:06;4.90;;;2.20;;
65289;SDS011;51893;59.754;10.110;2023-07-16T02:33:34;3.80;;;1.90;;
65289;SDS011;51893;59.754;10.110;2023-07-16T02:36:03;4.30;;;1.80;;
65289;SDS011;51893;59.754;10.110;2023-07-16T02:38:32;5.70;;;2.00;;
65289;SDS011;51893;59.754;10.110;2023-07-16T02:41:00;3.40;;;1.80;;
65289;SDS011;51893;59.754;10.110;2023-07-16T02:43:28;5.40;;;2.00;;
65289;SDS011;51893;59.754;10.110;2023-07-16T02:45:56;5.60;;;2.10;;
65289;SDS011;51893;59.754;10.110;2023-07-16T02:48:24;4.70;;;1.70;;
65289;SDS011;51893;59.754;10.110;2023-07-16T02:50:52;5.30;;;1.80;;
65289;SDS011;51893;59.754;10.110;2023-07-16T02:53:20;5.80;;;1.80;;
65289;SDS011;51893;59.754;10.110;2023-07-16T02:55:48;6.20;;;1.70;;
65289;SDS011;51893;59.754;10.110;2023-07-16T02:58:17;5.30;;;1.60;;
65289;SDS011;51893;59.754;10.110;2023-07-16T03:00:45;3.90;;;1.50;;
65289;SDS011;51893;59.754;10.110;2023-07-16T03:03:13;6.30;;;1.60;;
65289;SDS011;51893;59.754;10.110;2023-07-16T03:05:42;3.90;;;1.50;;
65289;SDS011;51893;59.754;10.110;2023-07-16T03:08:09;7.10;;;1.90;;
65289;SDS011;51893;59.754;10.110;2023-07-16T03:10:38;3.60;;;1.70;;
65289;SDS011;51893;59.754;10.110;2023-07-16T03:13:05;5.20;;;1.90;;
65289;SDS011;51893;59.754;10.110;2023-07-16T03:15:33;1.40;;;1.30;;
65289;SDS011;51893;59.754;10.110;2023-07-16T03:18:01;4.60;;;1.70;;
65289;SDS011;51893;59.754;10.110;2023-07-16T03:20:31;4.30;;;1.70;;
65289;SDS011;51893;59.754;10.110;2023-07-16T03:22:59;5.90;;;1.80;;
65289;SDS011;51893;59.754;10.110;2023-07-16T03:25:27;3.90;;;1.80;;
65289;SDS011;51893;59.754;10.110;2023-07-16T03:27:55;2.80;;;1.40;;
65289;SDS011;51893;59.754;10.110;2023-07-16T03:30:23;2.90;;;1.70;;
65289;SDS011;51893;59.754;10.110;2023-07-16T03:32:51;4.90;;;1.80;;
65289;SDS011;51893;59.754;10.110;2023-07-16T03:35:20;5.70;;;1.80;;
65289;SDS011;51893;59.754;10.110;2023-07-16T03:37:52;4.80;;;1.60;;
65289;SDS011;51893;59.754;10.110;2023-07-16T03:40:25;4.10;;;1.60;;
65289;SDS011;51893;59.754;10.110;2023-07-16T03:42:54;4.00;;;1.40;;
65289;SDS011;51893;59.754;10.110;2023-07-16T03:45:23;5.10;;;1.80;;
65289;SDS011;51893;59.754;10.110;2023-07-16T03:47:51;3.40;;;1.80;;
65289;SDS011;51893;59.754;10.110;2023-07-16T03:50:20;6.80;;;1.90;;
65289;SDS011;51893;59.754;10.110;2023-07-16T03:52:48;5.10;;;2.00;;
65289;SDS011;51893;59.754;10.110;2023-07-16T03:55:16;2.70;;;1.70;;
65289;SDS011;51893;59.754;10.110;2023-07-16T03:57:45;6.30;;;2.10;;
65289;SDS011;51893;59.754;10.110;2023-07-16T04:00:13;6.00;;;1.70;;
65289;SDS011;51893;59.754;10.110;2023-07-16T04:02:41;4.30;;;1.80;;
65289;SDS011;51893;59.754;10.110;2023-07-16T04:05:10;6.10;;;1.50;;
65289;SDS011;51893;59.754;10.110;2023-07-16T04:07:38;3.50;;;1.30;;
65289;SDS011;51893;59.754;10.110;2023-07-16T04:10:07;3.00;;;1.40;;
65289;SDS011;51893;59.754;10.110;2023-07-16T04:12:35;2.90;;;1.60;;
65289;SDS011;51893;59.754;10.110;2023-07-16T04:15:07;2.10;;;1.40;;
65289;SDS011;51893;59.754;10.110;2023-07-16T04:17:39;7.20;;;1.70;;
65289;SDS011;51893;59.754;10.110;2023-07-16T04:20:07;3.50;;;1.60;;
65289;SDS011;51893;59.754;10.110;2023-07-16T04:22:37;5.70;;;1.40;;
65289;SDS011;51893;59.754;10.110;2023-07-16T04:25:05;3.30;;;1.90;;
65289;SDS011;51893;59.754;10.110;2023-07-16T04:27:34;3.00;;;1.50;;
65289;SDS011;51893;59.754;10.110;2023-07-16T04:30:02;3.50;;;1.50;;
65289;SDS011;51893;59.754;10.110;2023-07-16T04:32:30;5.40;;;1.60;;
65289;SDS011;51893;59.754;10.110;2023-07-16T04:34:58;4.50;;;1.50;;
65289;SDS011;51893;59.754;10.110;2023-07-16T04:37:26;4.80;;;1.60;;
65289;SDS011;51893;59.754;10.110;2023-07-16T04:39:54;4.90;;;1.30;;
65289;SDS011;51893;59.754;10.110;2023-07-16T04:42:23;4.40;;;1.70;;
65289;SDS011;51893;59.754;10.110;2023-07-16T04:44:51;1.50;;;1.40;;
65289;SDS011;51893;59.754;10.110;2023-07-16T04:47:19;4.10;;;1.60;;
65289;SDS011;51893;59.754;10.110;2023-07-16T04:49:46;4.50;;;1.30;;
65289;SDS011;51893;59.754;10.110;2023-07-16T04:52:15;1.80;;;1.20;;
65289;SDS011;51893;59.754;10.110;2023-07-16T04:54:43;1.80;;;1.30;;
65289;SDS011;51893;59.754;10.110;2023-07-16T04:57:11;4.20;;;2.10;;
65289;SDS011;51893;59.754;10.110;2023-07-16T04:59:39;3.60;;;1.50;;
65289;SDS011;51893;59.754;10.110;2023-07-16T05:02:07;4.30;;;1.80;;
65289;SDS011;51893;59.754;10.110;2023-07-16T05:04:35;2.70;;;1.20;;
65289;SDS011;51893;59.754;10.110;2023-07-16T05:07:04;3.80;;;1.60;;
65289;SDS011;51893;59.754;10.110;2023-07-16T05:09:32;3.40;;;1.40;;
65289;SDS011;51893;59.754;10.110;2023-07-16T05:12:00;1.90;;;1.20;;
65289;SDS011;51893;59.754;10.110;2023-07-16T05:14:29;3.50;;;1.80;;
65289;SDS011;51893;59.754;10.110;2023-07-16T05:16:57;4.20;;;1.50;;
65289;SDS011;51893;59.754;10.110;2023-07-16T05:19:25;7.60;;;2.00;;
65289;SDS011;51893;59.754;10.110;2023-07-16T05:21:53;3.00;;;1.60;;
65289;SDS011;51893;59.754;10.110;2023-07-16T05:24:21;5.20;;;1.70;;
65289;SDS011;51893;59.754;10.110;2023-07-16T05:26:49;3.00;;;1.50;;
65289;SDS011;51893;59.754;10.110;2023-07-16T05:29:18;5.20;;;1.70;;
65289;SDS011;51893;59.754;10.110;2023-07-16T05:31:46;6.40;;;1.60;;
65289;SDS011;51893;59.754;10.110;2023-07-16T05:34:15;4.50;;;1.70;;
65289;SDS011;51893;59.754;10.110;2023-07-16T05:36:43;5.70;;;1.70;;
65289;SDS011;51893;59.754;10.110;2023-07-16T05:39:14;3.70;;;1.70;;
65289;SDS011;51893;59.754;10.110;2023-07-16T05:41:42;5.30;;;1.10;;
65289;SDS011;51893;59.754;10.110;2023-07-16T05:44:10;3.20;;;1.20;;
65289;SDS011;51893;59.754;10.110;2023-07-16T05:46:38;3.20;;;1.30;;
65289;SDS011;51893;59.754;10.110;2023-07-16T05:49:07;1.40;;;1.20;;
65289;SDS011;51893;59.754;10.110;2023-07-16T05:51:35;4.10;;;1.70;;
65289;SDS011;51893;59.754;10.110;2023-07-16T05:54:05;2.70;;;1.40;;
65289;SDS011;51893;59.754;10.110;2023-07-16T05:56:34;2.60;;;1.60;;
65289;SDS011;51893;59.754;10.110;2023-07-16T05:59:02;4.90;;;1.60;;
65289;SDS011;51893;59.754;10.110;2023-07-16T06:01:30;2.40;;;1.40;;
65289;SDS011;51893;59.754;10.110;2023-07-16T06:03:58;3.30;;;1.30;;
65289;SDS011;51893;59.754;10.110;2023-07-16T06:06:27;3.30;;;1.40;;
65289;SDS011;51893;59.754;10.110;2023-07-16T06:08:56;1.40;;;1.30;;
65289;SDS011;51893;59.754;10.110;2023-07-16T06:11:24;1.60;;;1.20;;
65289;SDS011;51893;59.754;10.110;2023-07-16T06:13:53;1.60;;;1.30;;
65289;SDS011;51893;59.754;10.110;2023-07-16T06:16:23;1.80;;;0.90;;
65289;SDS011;51893;59.754;10.110;2023-07-16T06:18:51;3.30;;;1.10;;
65289;SDS011;51893;59.754;10.110;2023-07-16T06:21:19;2.60;;;1.30;;
65289;SDS011;51893;59.754;10.110;2023-07-16T06:23:47;8.00;;;2.00;;
65289;SDS011;51893;59.754;10.110;2023-07-16T06:26:15;7.20;;;2.00;;
65289;SDS011;51893;59.754;10.110;2023-07-16T06:28:44;5.70;;;1.20;;
65289;SDS011;51893;59.754;10.110;2023-07-16T06:31:12;5.40;;;1.50;;
65289;SDS011;51893;59.754;10.110;2023-07-16T06:33:40;2.90;;;1.30;;
65289;SDS011;51893;59.754;10.110;2023-07-16T06:36:08;6.70;;;1.70;;
65289;SDS011;51893;59.754;10.110;2023-07-16T06:38:36;6.90;;;1.70;;
65289;SDS011;51893;59.754;10.110;2023-07-16T06:41:04;5.00;;;1.80;;
65289;SDS011;51893;59.754;10.110;2023-07-16T06:43:32;4.10;;;1.60;;
65289;SDS011;51893;59.754;10.110;2023-07-16T06:46:00;4.70;;;2.10;;
65289;SDS011;51893;59.754;10.110;2023-07-16T06:48:29;4.80;;;1.70;;
65289;SDS011;51893;59.754;10.110;2023-07-16T06:50:57;5.30;;;1.70;;
65289;SDS011;51893;59.754;10.110;2023-07-16T06:53:25;3.10;;;1.40;;
65289;SDS011;51893;59.754;10.110;2023-07-16T06:55:53;5.00;;;1.60;;
65289;SDS011;51893;59.754;10.110;2023-07-16T06:58:31;2.00;;;1.20;;
65289;SDS011;51893;59.754;10.110;2023-07-16T07:01:01;3.80;;;1.60;;
65289;SDS011;51893;59.754;10.110;2023-07-16T07:03:29;1.70;;;1.20;;
65289;SDS011;51893;59.754;10.110;2023-07-16T07:05:58;4.30;;;1.30;;
65289;SDS011;51893;59.754;10.110;2023-07-16T07:08:26;2.70;;;1.40;;
65289;SDS011;51893;59.754;10.110;2023-07-16T07:10:54;6.70;;;1.70;;
65289;SDS011;51893;59.754;10.110;2023-07-16T07:13:21;3.10;;;1.60;;
65289;SDS011;51893;59.754;10.110;2023-07-16T07:15:50;6.60;;;1.70;;
65289;SDS011;51893;59.754;10.110;2023-07-16T07:18:18;6.80;;;1.70;;
65289;SDS011;51893;59.754;10.110;2023-07-16T07:20:49;6.00;;;2.00;;
65289;SDS011;51893;59.754;10.110;2023-07-16T07:23:17;6.30;;;1.90;;
65289;SDS011;51893;59.754;10.110;2023-07-16T07:25:50;6.20;;;1.90;;
65289;SDS011;51893;59.754;10.110;2023-07-16T07:30:48;7.60;;;1.60;;
65289;SDS011;51893;59.754;10.110;2023-07-16T07:33:18;7.80;;;2.10;;
65289;SDS011;51893;59.754;10.110;2023-07-16T07:35:46;5.30;;;1.50;;
65289;SDS011;51893;59.754;10.110;2023-07-16T07:38:14;6.10;;;1.80;;
65289;SDS011;51893;59.754;10.110;2023-07-16T07:40:43;7.10;;;1.50;;
65289;SDS011;51893;59.754;10.110;2023-07-16T07:43:11;9.90;;;2.10;;
65289;SDS011;51893;59.754;10.110;2023-07-16T07:45:40;8.50;;;1.80;;
65289;SDS011;51893;59.754;10.110;2023-07-16T07:48:08;8.80;;;1.90;;
65289;SDS011;51893;59.754;10.110;2023-07-16T07:50:36;7.80;;;2.00;;
65289;SDS011;51893;59.754;10.110;2023-07-16T07:53:05;9.30;;;2.40;;
65289;SDS011;51893;59.754;10.110;2023-07-16T07:55:34;7.80;;;1.60;;
65289;SDS011;51893;59.754;10.110;2023-07-16T07:58:07;8.40;;;1.80;;
65289;SDS011;51893;59.754;10.110;2023-07-16T08:00:36;9.30;;;2.00;;
65289;SDS011;51893;59.754;10.110;2023-07-16T08:03:04;6.90;;;2.00;;
65289;SDS011;51893;59.754;10.110;2023-07-16T08:05:33;7.40;;;1.80;;
65289;SDS011;51893;59.754;10.110;2023-07-16T08:08:02;8.10;;;2.10;;
65289;SDS011;51893;59.754;10.110;2023-07-16T08:10:30;13.70;;;2.40;;
65289;SDS011;51893;59.754;10.110;2023-07-16T08:12:58;7.30;;;1.90;;
65289;SDS011;51893;59.754;10.110;2023-07-16T08:15:26;6.50;;;2.00;;
65289;SDS011;51893;59.754;10.110;2023-07-16T08:17:54;7.00;;;2.00;;
65289;SDS011;51893;59.754;10.110;2023-07-16T08:20:24;9.30;;;2.10;;
65289;SDS011;51893;59.754;10.110;2023-07-16T08:22:52;9.90;;;2.20;;
65289;SDS011;51893;59.754;10.110;2023-07-16T08:25:20;7.50;;;2.10;;
65289;SDS011;51893;59.754;10.110;2023-07-16T08:27:48;9.50;;;2.00;;
65289;SDS011;51893;59.754;10.110;2023-07-16T08:30:17;7.60;;;2.00;;
65289;SDS011;51893;59.754;10.110;2023-07-16T08:32:45;8.20;;;1.80;;
65289;SDS011;51893;59.754;10.110;2023-07-16T08:35:15;8.00;;;2.10;;
65289;SDS011;51893;59.754;10.110;2023-07-16T08:37:44;10.80;;;2.20;;
65289;SDS011;51893;59.754;10.110;2023-07-16T08:40:12;11.50;;;2.50;;
65289;SDS011;51893;59.754;10.110;2023-07-16T08:42:44;14.80;;;2.70;;
65289;SDS011;51893;59.754;10.110;2023-07-16T08:45:15;8.60;;;2.10;;
65289;SDS011;51893;59.754;10.110;2023-07-16T08:47:44;5.90;;;2.10;;
65289;SDS011;51893;59.754;10.110;2023-07-16T08:50:12;6.80;;;1.90;;
65289;SDS011;51893;59.754;10.110;2023-07-16T08:52:42;10.60;;;2.40;;
65289;SDS011;51893;59.754;10.110;2023-07-16T08:55:11;10.20;;;2.30;;
65289;SDS011;51893;59.754;10.110;2023-07-16T08:57:40;7.60;;;1.60;;
65289;SDS011;51893;59.754;10.110;2023-07-16T09:00:10;9.10;;;2.10;;
65289;SDS011;51893;59.754;10.110;2023-07-16T09:02:39;8.70;;;2.10;;
65289;SDS011;51893;59.754;10.110;2023-07-16T09:05:09;9.80;;;2.20;;
65289;SDS011;51893;59.754;10.110;2023-07-16T09:07:51;11.40;;;2.70;;
65289;SDS011;51893;59.754;10.110;2023-07-16T09:10:19;15.10;;;3.70;;
65289;SDS011;51893;59.754;10.110;2023-07-16T09:12:47;11.00;;;2.30;;
65289;SDS011;51893;59.754;10.110;2023-07-16T09:15:18;7.20;;;2.70;;
65289;SDS011;51893;59.754;10.110;2023-07-16T09:17:50;14.10;;;2.70;;
65289;SDS011;51893;59.754;10.110;2023-07-16T09:20:18;14.10;;;2.60;;
65289;SDS011;51893;59.754;10.110;2023-07-16T09:22:47;11.70;;;2.50;;
65289;SDS011;51893;59.754;10.110;2023-07-16T09:25:15;11.20;;;2.30;;
65289;SDS011;51893;59.754;10.110;2023-07-16T09:27:48;16.20;;;2.50;;
65289;SDS011;51893;59.754;10.110;2023-07-16T09:30:16;11.80;;;2.60;;
65289;SDS011;51893;59.754;10.110;2023-07-16T09:32:45;6.80;;;2.10;;
65289;SDS011;51893;59.754;10.110;2023-07-16T09:35:16;9.70;;;2.30;;
65289;SDS011;51893;59.754;10.110;2023-07-16T09:40:18;8.50;;;2.20;;
65289;SDS011;51893;59.754;10.110;2023-07-16T09:42:48;10.40;;;1.90;;
65289;SDS011;51893;59.754;10.110;2023-07-16T09:45:18;12.90;;;2.40;;
65289;SDS011;51893;59.754;10.110;2023-07-16T09:47:47;12.80;;;2.60;;
65289;SDS011;51893;59.754;10.110;2023-07-16T09:50:16;13.10;;;2.60;;
65289;SDS011;51893;59.754;10.110;2023-07-16T09:52:45;8.40;;;2.00;;
65289;SDS011;51893;59.754;10.110;2023-07-16T09:55:16;6.80;;;1.80;;
65289;SDS011;51893;59.754;10.110;2023-07-16T09:57:46;7.90;;;2.40;;
65289;SDS011;51893;59.754;10.110;2023-07-16T10:00:16;8.40;;;2.50;;
65289;SDS011;51893;59.754;10.110;2023-07-16T10:02:45;9.80;;;2.20;;
65289;SDS011;51893;59.754;10.110;2023-07-16T10:05:19;6.60;;;1.90;;
65289;SDS011;51893;59.754;10.110;2023-07-16T10:07:59;9.70;;;2.30;;
65289;SDS011;51893;59.754;10.110;2023-07-16T10:10:42;19.40;;;3.00;;
65289;SDS011;51893;59.754;10.110;2023-07-16T10:13:12;8.00;;;2.30;;
65289;SDS011;51893;59.754;10.110;2023-07-16T10:15:54;13.90;;;2.90;;
65289;SDS011;51893;59.754;10.110;2023-07-16T10:18:31;13.10;;;3.20;;
65289;SDS011;51893;59.754;10.110;2023-07-16T10:21:04;10.90;;;2.50;;
65289;SDS011;51893;59.754;10.110;2023-07-16T10:26:13;12.50;;;2.80;;
65289;SDS011;51893;59.754;10.110;2023-07-16T10:28:47;9.20;;;2.60;;
65289;SDS011;51893;59.754;10.110;2023-07-16T10:31:21;15.90;;;3.10;;
65289;SDS011;51893;59.754;10.110;2023-07-16T10:34:11;9.20;;;3.00;;
65289;SDS011;51893;59.754;10.110;2023-07-16T10:36:39;16.80;;;3.60;;
65289;SDS011;51893;59.754;10.110;2023-07-16T10:39:08;11.60;;;2.70;;
65289;SDS011;51893;59.754;10.110;2023-07-16T10:41:37;10.10;;;2.20;;
65289;SDS011;51893;59.754;10.110;2023-07-16T10:44:08;12.80;;;2.90;;
65289;SDS011;51893;59.754;10.110;2023-07-16T10:46:37;14.40;;;3.30;;
65289;SDS011;51893;59.754;10.110;2023-07-16T10:49:05;15.00;;;2.90;;
65289;SDS011;51893;59.754;10.110;2023-07-16T10:51:33;7.50;;;2.60;;
65289;SDS011;51893;59.754;10.110;2023-07-16T10:54:01;9.10;;;2.40;;
65289;SDS011;51893;59.754;10.110;2023-07-16T10:56:36;11.00;;;3.20;;
65289;SDS011;51893;59.754;10.110;2023-07-16T10:59:05;10.80;;;2.70;;
65289;SDS011;51893;59.754;10.110;2023-07-16T11:01:35;13.80;;;3.20;;
65289;SDS011;51893;59.754;10.110;2023-07-16T11:04:07;10.60;;;2.70;;
65289;SDS011;51893;59.754;10.110;2023-07-16T11:06:36;10.40;;;2.90;;
65289;SDS011;51893;59.754;10.110;2023-07-16T11:09:11;13.00;;;3.10;;
65289;SDS011;51893;59.754;10.110;2023-07-16T11:11:39;12.10;;;3.10;;
65289;SDS011;51893;59.754;10.110;2023-07-16T11:14:08;9.30;;;2.80;;
65289;SDS011;51893;59.754;10.110;2023-07-16T11:16:37;5.90;;;2.40;;
65289;SDS011;51893;59.754;10.110;2023-07-16T11:19:07;8.30;;;2.50;;
65289;SDS011;51893;59.754;10.110;2023-07-16T11:21:36;6.00;;;1.90;;
65289;SDS011;51893;59.754;10.110;2023-07-16T11:24:14;6.80;;;2.50;;
65289;SDS011;51893;59.754;10.110;2023-07-16T11:27:01;8.20;;;2.30;;
65289;SDS011;51893;59.754;10.110;2023-07-16T11:29:35;13.90;;;3.00;;
65289;SDS011;51893;59.754;10.110;2023-07-16T11:32:05;10.90;;;2.20;;
65289;SDS011;51893;59.754;10.110;2023-07-16T11:34:33;10.20;;;2.60;;
65289;SDS011;51893;59.754;10.110;2023-07-16T11:37:12;5.20;;;2.40;;
65289;SDS011;51893;59.754;10.110;2023-07-16T11:39:40;9.40;;;2.80;;
65289;SDS011;51893;59.754;10.110;2023-07-16T11:42:08;8.80;;;2.90;;
65289;SDS011;51893;59.754;10.110;2023-07-16T11:44:37;6.40;;;1.90;;
65289;SDS011;51893;59.754;10.110;2023-07-16T11:47:05;5.90;;;2.10;;
65289;SDS011;51893;59.754;10.110;2023-07-16T11:49:35;4.50;;;1.60;;
65289;SDS011;51893;59.754;10.110;2023-07-16T11:52:03;8.10;;;2.30;;
65289;SDS011;51893;59.754;10.110;2023-07-16T11:54:31;7.40;;;2.60;;
65289;SDS011;51893;59.754;10.110;2023-07-16T11:56:59;8.70;;;3.00;;
65289;SDS011;51893;59.754;10.110;2023-07-16T11:59:27;9.00;;;2.70;;
65289;SDS011;51893;59.754;10.110;2023-07-16T12:01:55;10.50;;;2.70;;
65289;SDS011;51893;59.754;10.110;2023-07-16T12:04:24;6.60;;;2.40;;
65289;SDS011;51893;59.754;10.110;2023-07-16T12:06:52;7.50;;;2.60;;
65289;SDS011;51893;59.754;10.110;2023-07-16T12:09:20;8.30;;;2.10;;
65289;SDS011;51893;59.754;10.110;2023-07-16T12:11:48;7.40;;;2.60;;
65289;SDS011;51893;59.754;10.110;2023-07-16T12:14:16;5.80;;;2.20;;
65289;SDS011;51893;59.754;10.110;2023-07-16T12:16:44;8.50;;;2.80;;
65289;SDS011;51893;59.754;10.110;2023-07-16T12:19:13;6.60;;;2.50;;
65289;SDS011;51893;59.754;10.110;2023-07-16T12:21:41;5.10;;;2.10;;
65289;SDS011;51893;59.754;10.110;2023-07-16T12:24:11;7.00;;;2.30;;
65289;SDS011;51893;59.754;10.110;2023-07-16T12:26:39;6.10;;;1.90;;
65289;SDS011;51893;59.754;10.110;2023-07-16T12:29:08;4.80;;;2.10;;
65289;SDS011;51893;59.754;10.110;2023-07-16T12:31:36;7.00;;;2.50;;
65289;SDS011;51893;59.754;10.110;2023-07-16T12:34:05;5.10;;;2.10;;
65289;SDS011;51893;59.754;10.110;2023-07-16T12:36:33;4.40;;;1.70;;
65289;SDS011;51893;59.754;10.110;2023-07-16T12:39:02;5.30;;;1.80;;
65289;SDS011;51893;59.754;10.110;2023-07-16T12:41:30;7.20;;;2.30;;
65289;SDS011;51893;59.754;10.110;2023-07-16T12:43:58;6.60;;;2.30;;
65289;SDS011;51893;59.754;10.110;2023-07-16T12:46:27;6.70;;;2.20;;
65289;SDS011;51893;59.754;10.110;2023-07-16T12:48:55;5.00;;;2.00;;
65289;SDS011;51893;59.754;10.110;2023-07-16T12:51:23;3.10;;;1.20;;
65289;SDS011;51893;59.754;10.110;2023-07-16T12:53:52;2.90;;;1.30;;
65289;SDS011;51893;59.754;10.110;2023-07-16T12:56:19;2.70;;;1.40;;
65289;SDS011;51893;59.754;10.110;2023-07-16T12:58:48;3.50;;;1.30;;
65289;SDS011;51893;59.754;10.110;2023-07-16T13:01:16;4.10;;;1.80;;
65289;SDS011;51893;59.754;10.110;2023-07-16T13:03:45;5.10;;;1.50;;
65289;SDS011;51893;59.754;10.110;2023-07-16T13:06:14;3.70;;;1.40;;
65289;SDS011;51893;59.754;10.110;2023-07-16T13:08:42;4.20;;;1.40;;
65289;SDS011;51893;59.754;10.110;2023-07-16T13:11:10;3.80;;;1.80;;
65289;SDS011;51893;59.754;10.110;2023-07-16T13:13:39;3.80;;;1.60;;
65289;SDS011;51893;59.754;10.110;2023-07-16T13:16:07;5.30;;;1.80;;
65289;SDS011;51893;59.754;10.110;2023-07-16T13:18:35;5.00;;;1.80;;
65289;SDS011;51893;59.754;10.110;2023-07-16T13:21:03;4.20;;;1.90;;
65289;SDS011;51893;59.754;10.110;2023-07-16T13:23:32;8.50;;;2.30;;
65289;SDS011;51893;59.754;10.110;2023-07-16T13:26:01;5.50;;;1.70;;
65289;SDS011;51893;59.754;10.110;2023-07-16T13:28:30;7.20;;;1.50;;
65289;SDS011;51893;59.754;10.110;2023-07-16T13:31:00;4.50;;;1.80;;
65289;SDS011;51893;59.754;10.110;2023-07-16T13:33:28;5.90;;;2.10;;
65289;SDS011;51893;59.754;10.110;2023-07-16T13:35:56;4.50;;;1.90;;
65289;SDS011;51893;59.754;10.110;2023-07-16T13:38:24;6.50;;;2.20;;
65289;SDS011;51893;59.754;10.110;2023-07-16T13:40:52;5.50;;;1.70;;
65289;SDS011;51893;59.754;10.110;2023-07-16T13:43:21;7.10;;;1.60;;
65289;SDS011;51893;59.754;10.110;2023-07-16T13:45:49;4.60;;;1.50;;
65289;SDS011;51893;59.754;10.110;2023-07-16T13:48:17;6.70;;;1.70;;
65289;SDS011;51893;59.754;10.110;2023-07-16T13:50:45;7.10;;;1.80;;
65289;SDS011;51893;59.754;10.110;2023-07-16T13:53:13;7.30;;;1.70;;
65289;SDS011;51893;59.754;10.110;2023-07-16T13:55:42;4.90;;;1.50;;
65289;SDS011;51893;59.754;10.110;2023-07-16T13:58:12;5.80;;;2.00;;
65289;SDS011;51893;59.754;10.110;2023-07-16T14:00:42;4.40;;;1.80;;
65289;SDS011;51893;59.754;10.110;2023-07-16T14:03:13;5.30;;;1.60;;
65289;SDS011;51893;59.754;10.110;2023-07-16T14:05:43;6.20;;;1.70;;
65289;SDS011;51893;59.754;10.110;2023-07-16T14:08:11;7.50;;;1.90;;
65289;SDS011;51893;59.754;10.110;2023-07-16T14:10:39;4.90;;;1.80;;
65289;SDS011;51893;59.754;10.110;2023-07-16T14:13:07;4.00;;;1.50;;
65289;SDS011;51893;59.754;10.110;2023-07-16T14:15:35;6.80;;;1.90;;
65289;SDS011;51893;59.754;10.110;2023-07-16T14:18:03;4.50;;;1.40;;
65289;SDS011;51893;59.754;10.110;2023-07-16T14:20:32;3.90;;;1.50;;
65289;SDS011;51893;59.754;10.110;2023-07-16T14:23:00;4.70;;;1.30;;
65289;SDS011;51893;59.754;10.110;2023-07-16T14:25:29;7.50;;;1.60;;
65289;SDS011;51893;59.754;10.110;2023-07-16T14:27:57;8.70;;;2.10;;
65289;SDS011;51893;59.754;10.110;2023-07-16T14:30:25;5.20;;;1.50;;
65289;SDS011;51893;59.754;10.110;2023-07-16T14:32:53;4.70;;;1.70;;
65289;SDS011;51893;59.754;10.110;2023-07-16T14:35:22;7.30;;;1.60;;
65289;SDS011;51893;59.754;10.110;2023-07-16T14:38:03;6.60;;;2.10;;
65289;SDS011;51893;59.754;10.110;2023-07-16T14:40:32;5.80;;;1.60;;
65289;SDS011;51893;59.754;10.110;2023-07-16T14:43:00;3.30;;;1.40;;
65289;SDS011;51893;59.754;10.110;2023-07-16T14:45:28;4.90;;;1.30;;
65289;SDS011;51893;59.754;10.110;2023-07-16T14:48:00;5.70;;;1.60;;
65289;SDS011;51893;59.754;10.110;2023-07-16T14:50:28;9.30;;;1.80;;
65289;SDS011;51893;59.754;10.110;2023-07-16T14:52:56;10.50;;;2.30;;
65289;SDS011;51893;59.754;10.110;2023-07-16T14:55:25;7.30;;;1.90;;